sensor_id;sensor_type;location;lat;lon;timestamp;pressure;altitude;pressure_sealevel;temperature;humidity
41250;BME280;26984;59.928;30.306;2022-09-28T00:01:55;101023.34;;;9.56;100.00
41250;BME280;26984;59.928;30.306;2022-09-28T00:04:23;101016.56;;;9.61;100.00
41250;BME280;26984;59.928;30.306;2022-09-28T00:06:51;101024.19;;;9.57;100.00
41250;BME280;26984;59.928;30.306;2022-09-28T00:09:18;101017.34;;;9.54;100.00
41250;BME280;26984;59.928;30.306;2022-09-28T00:11:46;101016.53;;;9.54;100.00
41250;BME280;26984;59.928;30.306;2022-09-28T00:14:13;101014.00;;;9.52;100.00
41250;BME280;26984;59.928;30.306;2022-09-28T00:16:43;101012.56;;;9.50;100.00
41250;BME280;26984;59.928;30.306;2022-09-28T00:19:11;101015.88;;;9.52;100.00
41250;BME280;26984;59.928;30.306;2022-09-28T00:21:40;101010.31;;;9.53;100.00
41250;BME280;26984;59.928;30.306;2022-09-28T00:24:10;101012.78;;;9.55;100.00
41250;BME280;26984;59.928;30.306;2022-09-28T00:26:45;101009.03;;;9.49;100.00
41250;BME280;26984;59.928;30.306;2022-09-28T00:29:18;101011.28;;;9.46;100.00
41250;BME280;26984;59.928;30.306;2022-09-28T00:31:46;101002.59;;;9.44;100.00
41250;BME280;26984;59.928;30.306;2022-09-28T00:34:13;101003.22;;;9.46;100.00
41250;BME280;26984;59.928;30.306;2022-09-28T00:36:43;101007.78;;;9.45;100.00
41250;BME280;26984;59.928;30.306;2022-09-28T00:39:12;101007.97;;;9.44;100.00
41250;BME280;26984;59.928;30.306;2022-09-28T00:41:40;101000.53;;;9.46;100.00
41250;BME280;26984;59.928;30.306;2022-09-28T00:46:54;100999.03;;;9.30;100.00
41250;BME280;26984;59.928;30.306;2022-09-28T00:49:24;100998.38;;;9.28;100.00
41250;BME280;26984;59.928;30.306;2022-09-28T00:51:57;101006.22;;;9.23;100.00
41250;BME280;26984;59.928;30.306;2022-09-28T00:54:25;100999.16;;;9.15;100.00
41250;BME280;26984;59.928;30.306;2022-09-28T00:56:53;101002.41;;;9.10;100.00
41250;BME280;26984;59.928;30.306;2022-09-28T00:59:20;100995.59;;;9.08;100.00
41250;BME280;26984;59.928;30.306;2022-09-28T01:01:49;100994.72;;;9.01;100.00
41250;BME280;26984;59.928;30.306;2022-09-28T01:04:17;100995.72;;;9.00;100.00
41250;BME280;26984;59.928;30.306;2022-09-28T01:06:44;100995.94;;;8.98;100.00
41250;BME280;26984;59.928;30.306;2022-09-28T01:09:14;101000.47;;;8.98;100.00
41250;BME280;26984;59.928;30.306;2022-09-28T01:11:42;100995.94;;;8.98;100.00
41250;BME280;26984;59.928;30.306;2022-09-28T01:14:11;101001.03;;;8.86;100.00
41250;BME280;26984;59.928;30.306;2022-09-28T01:16:40;100998.13;;;8.88;100.00
41250;BME280;26984;59.928;30.306;2022-09-28T01:19:35;101004.50;;;8.80;100.00
41250;BME280;26984;59.928;30.306;2022-09-28T01:22:10;101004.06;;;8.77;100.00
41250;BME280;26984;59.928;30.306;2022-09-28T01:24:43;100999.44;;;8.71;100.00
41250;BME280;26984;59.928;30.306;2022-09-28T01:27:13;101004.22;;;8.69;100.00
41250;BME280;26984;59.928;30.306;2022-09-28T01:29:48;100996.16;;;8.69;100.00
41250;BME280;26984;59.928;30.306;2022-09-28T01:32:24;101000.25;;;8.65;100.00
41250;BME280;26984;59.928;30.306;2022-09-28T01:34:53;101001.03;;;8.58;100.00
41250;BME280;26984;59.928;30.306;2022-09-28T01:37:24;100999.53;;;8.56;100.00
41250;BME280;26984;59.928;30.306;2022-09-28T01:39:52;100994.38;;;8.54;100.00
41250;BME280;26984;59.928;30.306;2022-09-28T01:42:24;100993.56;;;8.54;100.00
41250;BME280;26984;59.928;30.306;2022-09-28T01:44:53;100997.06;;;8.54;100.00
41250;BME280;26984;59.928;30.306;2022-09-28T01:47:23;100994.38;;;8.54;100.00
41250;BME280;26984;59.928;30.306;2022-09-28T01:49:54;100992.91;;;8.52;100.00
41250;BME280;26984;59.928;30.306;2022-09-28T01:52:25;100996.41;;;8.52;100.00
41250;BME280;26984;59.928;30.306;2022-09-28T01:54:56;100990.22;;;8.52;100.00
41250;BME280;26984;59.928;30.306;2022-09-28T01:57:27;100990.00;;;8.53;100.00
41250;BME280;26984;59.928;30.306;2022-09-28T01:59:58;100986.44;;;8.46;100.00
41250;BME280;26984;59.928;30.306;2022-09-28T02:02:40;100993.44;;;8.41;100.00
41250;BME280;26984;59.928;30.306;2022-09-28T02:05:12;100987.97;;;8.34;100.00
41250;BME280;26984;59.928;30.306;2022-09-28T02:07:42;100983.19;;;8.29;100.00
41250;BME280;26984;59.928;30.306;2022-09-28T02:10:12;100985.44;;;8.26;100.00
41250;BME280;26984;59.928;30.306;2022-09-28T02:12:43;100985.59;;;8.24;100.00
41250;BME280;26984;59.928;30.306;2022-09-28T02:15:14;100980.31;;;8.31;100.00
41250;BME280;26984;59.928;30.306;2022-09-28T02:17:45;100980.94;;;8.33;100.00
41250;BME280;26984;59.928;30.306;2022-09-28T02:20:14;100980.84;;;8.41;100.00
41250;BME280;26984;59.928;30.306;2022-09-28T02:22:43;100982.16;;;8.30;100.00
41250;BME280;26984;59.928;30.306;2022-09-28T02:25:12;100985.44;;;8.26;100.00
41250;BME280;26984;59.928;30.306;2022-09-28T02:27:49;100984.97;;;8.22;100.00
41250;BME280;26984;59.928;30.306;2022-09-28T02:30:18;100982.47;;;8.21;100.00
41250;BME280;26984;59.928;30.306;2022-09-28T02:32:46;100986.19;;;8.20;100.00
41250;BME280;26984;59.928;30.306;2022-09-28T02:35:16;100984.34;;;8.20;100.00
41250;BME280;26984;59.928;30.306;2022-09-28T02:37:44;100985.81;;;8.23;100.00
41250;BME280;26984;59.928;30.306;2022-09-28T02:40:12;100986.44;;;8.25;100.00
41250;BME280;26984;59.928;30.306;2022-09-28T02:42:44;100988.22;;;8.18;100.00
41250;BME280;26984;59.928;30.306;2022-09-28T02:45:18;100985.75;;;8.16;100.00
41250;BME280;26984;59.928;30.306;2022-09-28T02:47:53;100985.28;;;8.12;100.00
41250;BME280;26984;59.928;30.306;2022-09-28T02:50:26;100989.94;;;8.04;100.00
41250;BME280;26984;59.928;30.306;2022-09-28T02:53:05;100990.53;;;7.99;100.00
41250;BME280;26984;59.928;30.306;2022-09-28T02:55:41;100988.03;;;7.98;100.00
41250;BME280;26984;59.928;30.306;2022-09-28T02:58:18;100980.63;;;8.00;100.00
41250;BME280;26984;59.928;30.306;2022-09-28T03:00:51;100980.63;;;8.00;100.00
41250;BME280;26984;59.928;30.306;2022-09-28T03:03:23;100985.59;;;8.03;100.00
41250;BME280;26984;59.928;30.306;2022-09-28T03:05:56;100972.91;;;8.11;100.00
41250;BME280;26984;59.928;30.306;2022-09-28T03:08:28;100975.44;;;8.20;100.00
41250;BME280;26984;59.928;30.306;2022-09-28T03:10:59;100974.41;;;8.21;100.00
41250;BME280;26984;59.928;30.306;2022-09-28T03:13:29;100975.91;;;8.23;100.00
41250;BME280;26984;59.928;30.306;2022-09-28T03:16:10;100970.53;;;8.23;100.00
41250;BME280;26984;59.928;30.306;2022-09-28T03:18:40;100972.63;;;8.28;100.00
41250;BME280;26984;59.928;30.306;2022-09-28T03:21:08;100968.91;;;8.29;100.00
41250;BME280;26984;59.928;30.306;2022-09-28T03:23:37;100970.97;;;8.27;100.00
41250;BME280;26984;59.928;30.306;2022-09-28T03:26:06;100967.31;;;8.34;100.00
41250;BME280;26984;59.928;30.306;2022-09-28T03:28:33;100967.09;;;8.29;100.00
41250;BME280;26984;59.928;30.306;2022-09-28T03:31:01;100968.75;;;8.30;100.00
41250;BME280;26984;59.928;30.306;2022-09-28T03:33:30;100965.66;;;8.33;100.00
41250;BME280;26984;59.928;30.306;2022-09-28T03:35:58;100965.75;;;8.40;100.00
41250;BME280;26984;59.928;30.306;2022-09-28T03:38:25;100961.91;;;8.49;100.00
41250;BME280;26984;59.928;30.306;2022-09-28T03:40:54;100967.66;;;8.46;100.00
41250;BME280;26984;59.928;30.306;2022-09-28T03:43:22;100964.28;;;8.37;100.00
41250;BME280;26984;59.928;30.306;2022-09-28T03:45:52;100965.56;;;8.42;100.00
41250;BME280;26984;59.928;30.306;2022-09-28T03:48:20;100967.03;;;8.44;100.00
41250;BME280;26984;59.928;30.306;2022-09-28T03:50:52;100962.94;;;8.48;100.00
41250;BME280;26984;59.928;30.306;2022-09-28T03:53:20;100958.59;;;8.47;100.00
41250;BME280;26984;59.928;30.306;2022-09-28T03:55:47;100948.69;;;8.48;100.00
41250;BME280;26984;59.928;30.306;2022-09-28T03:58:15;100956.41;;;8.57;100.00
41250;BME280;26984;59.928;30.306;2022-09-28T04:00:43;100948.63;;;8.69;100.00
41250;BME280;26984;59.928;30.306;2022-09-28T04:03:10;100945.78;;;8.77;100.00
41250;BME280;26984;59.928;30.306;2022-09-28T04:05:38;100946.03;;;8.82;100.00
41250;BME280;26984;59.928;30.306;2022-09-28T04:08:06;100949.22;;;8.99;100.00
41250;BME280;26984;59.928;30.306;2022-09-28T04:10:34;100941.97;;;8.93;100.00
41250;BME280;26984;59.928;30.306;2022-09-28T04:13:02;100943.78;;;8.93;100.00
41250;BME280;26984;59.928;30.306;2022-09-28T04:15:29;100935.31;;;8.89;100.00
41250;BME280;26984;59.928;30.306;2022-09-28T04:17:57;100941.94;;;8.86;100.00
41250;BME280;26984;59.928;30.306;2022-09-28T04:20:57;100941.13;;;8.93;100.00
41250;BME280;26984;59.928;30.306;2022-09-28T04:23:27;100929.34;;;8.94;100.00
41250;BME280;26984;59.928;30.306;2022-09-28T04:25:54;100921.72;;;8.97;100.00
41250;BME280;26984;59.928;30.306;2022-09-28T04:28:22;100923.38;;;8.98;100.00
41250;BME280;26984;59.928;30.306;2022-09-28T04:31:07;100921.50;;;8.99;100.00
41250;BME280;26984;59.928;30.306;2022-09-28T04:33:35;100911.03;;;9.10;100.00
41250;BME280;26984;59.928;30.306;2022-09-28T04:36:03;100916.81;;;9.14;100.00
41250;BME280;26984;59.928;30.306;2022-09-28T04:38:33;100918.25;;;9.10;100.00
41250;BME280;26984;59.928;30.306;2022-09-28T04:41:00;100915.81;;;9.15;100.00
41250;BME280;26984;59.928;30.306;2022-09-28T04:43:28;100907.75;;;9.15;100.00
41250;BME280;26984;59.928;30.306;2022-09-28T04:45:57;100899.84;;;9.07;100.00
41250;BME280;26984;59.928;30.306;2022-09-28T04:48:25;100906.47;;;9.04;100.00
41250;BME280;26984;59.928;30.306;2022-09-28T04:51:21;100904.34;;;9.00;100.00
41250;BME280;26984;59.928;30.306;2022-09-28T04:53:49;100905.03;;;9.08;100.00
41250;BME280;26984;59.928;30.306;2022-09-28T04:56:18;100903.81;;;9.11;100.00
41250;BME280;26984;59.928;30.306;2022-09-28T04:58:45;100908.53;;;9.09;100.00
41250;BME280;26984;59.928;30.306;2022-09-28T05:01:15;100906.91;;;9.08;100.00
41250;BME280;26984;59.928;30.306;2022-09-28T05:03:55;100903.41;;;9.21;100.00
41250;BME280;26984;59.928;30.306;2022-09-28T05:06:52;100909.66;;;9.28;100.00
41250;BME280;26984;59.928;30.306;2022-09-28T05:09:21;100911.34;;;9.35;100.00
41250;BME280;26984;59.928;30.306;2022-09-28T05:11:48;100907.41;;;9.38;100.00
41250;BME280;26984;59.928;30.306;2022-09-28T05:14:19;100904.56;;;9.46;100.00
41250;BME280;26984;59.928;30.306;2022-09-28T05:16:48;100897.13;;;9.48;100.00
41250;BME280;26984;59.928;30.306;2022-09-28T05:19:18;100900.03;;;9.53;100.00
41250;BME280;26984;59.928;30.306;2022-09-28T05:21:46;100898.38;;;9.59;100.00
41250;BME280;26984;59.928;30.306;2022-09-28T05:24:15;100895.72;;;9.66;100.00
41250;BME280;26984;59.928;30.306;2022-09-28T05:26:53;100900.66;;;9.62;100.00
41250;BME280;26984;59.928;30.306;2022-09-28T05:29:22;100897.56;;;9.65;100.00
41250;BME280;26984;59.928;30.306;2022-09-28T05:32:17;100889.88;;;9.55;100.00
41250;BME280;26984;59.928;30.306;2022-09-28T05:35:06;100892.72;;;9.34;100.00
41250;BME280;26984;59.928;30.306;2022-09-28T05:37:48;100881.53;;;9.30;100.00
41250;BME280;26984;59.928;30.306;2022-09-28T05:40:17;100890.66;;;9.29;100.00
41250;BME280;26984;59.928;30.306;2022-09-28T05:42:51;100893.38;;;9.43;100.00
41250;BME280;26984;59.928;30.306;2022-09-28T05:45:20;100892.56;;;9.55;100.00
41250;BME280;26984;59.928;30.306;2022-09-28T05:47:56;100886.00;;;9.78;100.00
41250;BME280;26984;59.928;30.306;2022-09-28T05:50:36;100894.31;;;9.96;100.00
41250;BME280;26984;59.928;30.306;2022-09-28T05:53:07;100895.34;;;10.02;100.00
41250;BME280;26984;59.928;30.306;2022-09-28T05:55:36;100885.38;;;9.96;100.00
41250;BME280;26984;59.928;30.306;2022-09-28T05:58:06;100886.00;;;9.91;100.00
41250;BME280;26984;59.928;30.306;2022-09-28T06:00:34;100890.78;;;9.96;100.00
41250;BME280;26984;59.928;30.306;2022-09-28T06:03:02;100891.19;;;9.99;100.00
41250;BME280;26984;59.928;30.306;2022-09-28T06:05:30;100888.31;;;10.07;100.00
41250;BME280;26984;59.928;30.306;2022-09-28T06:08:01;100884.16;;;9.98;100.00
41250;BME280;26984;59.928;30.306;2022-09-28T06:10:30;100889.75;;;9.97;100.00
41250;BME280;26984;59.928;30.306;2022-09-28T06:13:00;100887.25;;;9.95;100.00
41250;BME280;26984;59.928;30.306;2022-09-28T06:15:29;100891.81;;;10.01;100.00
41250;BME280;26984;59.928;30.306;2022-09-28T06:17:59;100882.50;;;10.04;100.00
41250;BME280;26984;59.928;30.306;2022-09-28T06:20:45;100882.94;;;10.07;100.00
41250;BME280;26984;59.928;30.306;2022-09-28T06:23:16;100876.28;;;10.17;100.00
41250;BME280;26984;59.928;30.306;2022-09-28T06:25:44;100874.03;;;10.34;100.00
41250;BME280;26984;59.928;30.306;2022-09-28T06:28:12;100870.69;;;10.51;100.00
41250;BME280;26984;59.928;30.306;2022-09-28T06:30:42;100875.84;;;10.73;100.00
41250;BME280;26984;59.928;30.306;2022-09-28T06:33:13;100871.22;;;10.93;100.00
41250;BME280;26984;59.928;30.306;2022-09-28T06:35:41;100869.91;;;11.02;100.00
41250;BME280;26984;59.928;30.306;2022-09-28T06:38:09;100872.59;;;11.09;100.00
41250;BME280;26984;59.928;30.306;2022-09-28T06:40:36;100873.75;;;11.26;100.00
41250;BME280;26984;59.928;30.306;2022-09-28T06:43:06;100872.63;;;11.47;100.00
41250;BME280;26984;59.928;30.306;2022-09-28T06:45:55;100865.66;;;11.65;100.00
41250;BME280;26984;59.928;30.306;2022-09-28T06:48:42;100849.16;;;11.80;100.00
41250;BME280;26984;59.928;30.306;2022-09-28T06:51:18;100852.47;;;11.82;100.00
41250;BME280;26984;59.928;30.306;2022-09-28T06:53:54;100854.34;;;11.81;100.00
41250;BME280;26984;59.928;30.306;2022-09-28T06:56:48;100851.03;;;11.79;100.00
41250;BME280;26984;59.928;30.306;2022-09-28T06:59:18;100862.09;;;11.71;100.00
41250;BME280;26984;59.928;30.306;2022-09-28T07:01:47;100852.72;;;11.73;100.00
41250;BME280;26984;59.928;30.306;2022-09-28T07:04:40;100850.88;;;11.74;100.00
41250;BME280;26984;59.928;30.306;2022-09-28T07:07:40;100842.94;;;11.79;100.00
41250;BME280;26984;59.928;30.306;2022-09-28T07:10:30;100846.47;;;11.80;100.00
41250;BME280;26984;59.928;30.306;2022-09-28T07:13:27;100833.69;;;11.68;100.00
41250;BME280;26984;59.928;30.306;2022-09-28T07:16:03;100829.72;;;11.71;100.00
41250;BME280;26984;59.928;30.306;2022-09-28T07:18:32;100827.22;;;11.69;100.00
41250;BME280;26984;59.928;30.306;2022-09-28T07:20:59;100825.72;;;11.73;100.00
41250;BME280;26984;59.928;30.306;2022-09-28T07:23:30;100825.47;;;11.82;100.00
41250;BME280;26984;59.928;30.306;2022-09-28T07:26:16;100825.38;;;11.95;100.00
41250;BME280;26984;59.928;30.306;2022-09-28T07:28:52;100819.84;;;11.90;100.00
41250;BME280;26984;59.928;30.306;2022-09-28T07:31:29;100828.75;;;11.90;100.00
41250;BME280;26984;59.928;30.306;2022-09-28T07:34:21;100823.59;;;11.82;100.00
41250;BME280;26984;59.928;30.306;2022-09-28T07:37:02;100817.25;;;11.70;100.00
41250;BME280;26984;59.928;30.306;2022-09-28T07:39:34;100811.69;;;11.65;100.00
41250;BME280;26984;59.928;30.306;2022-09-28T07:42:22;100813.28;;;11.72;100.00
41250;BME280;26984;59.928;30.306;2022-09-28T07:44:48;100811.16;;;11.81;100.00
41250;BME280;26984;59.928;30.306;2022-09-28T07:47:16;100813.09;;;11.74;100.00
41250;BME280;26984;59.928;30.306;2022-09-28T07:50:28;100816.22;;;11.71;100.00
41250;BME280;26984;59.928;30.306;2022-09-28T07:53:16;100814.16;;;11.66;100.00
41250;BME280;26984;59.928;30.306;2022-09-28T07:56:10;100811.03;;;11.69;100.00
41250;BME280;26984;59.928;30.306;2022-09-28T07:59:04;100807.78;;;11.61;100.00
41250;BME280;26984;59.928;30.306;2022-09-28T08:01:38;100795.78;;;11.57;100.00
41250;BME280;26984;59.928;30.306;2022-09-28T08:04:07;100797.44;;;11.58;100.00
41250;BME280;26984;59.928;30.306;2022-09-28T08:06:37;100801.38;;;11.55;100.00
41250;BME280;26984;59.928;30.306;2022-09-28T08:09:06;100800.75;;;11.60;100.00
41250;BME280;26984;59.928;30.306;2022-09-28T08:11:52;100797.38;;;11.64;100.00
41250;BME280;26984;59.928;30.306;2022-09-28T08:14:38;100800.91;;;11.65;100.00
41250;BME280;26984;59.928;30.306;2022-09-28T08:17:26;100799.81;;;11.72;100.00
41250;BME280;26984;59.928;30.306;2022-09-28T08:19:56;100796.44;;;11.77;100.00
41250;BME280;26984;59.928;30.306;2022-09-28T08:22:42;100793.91;;;11.89;100.00
41250;BME280;26984;59.928;30.306;2022-09-28T08:25:11;100796.75;;;11.94;100.00
41250;BME280;26984;59.928;30.306;2022-09-28T08:27:38;100799.44;;;11.94;100.00
41250;BME280;26984;59.928;30.306;2022-09-28T08:30:06;100808.81;;;11.91;100.00
41250;BME280;26984;59.928;30.306;2022-09-28T08:32:57;100797.81;;;11.93;100.00
41250;BME280;26984;59.928;30.306;2022-09-28T08:35:42;100795.69;;;11.95;100.00
41250;BME280;26984;59.928;30.306;2022-09-28T08:38:28;100796.25;;;12.04;100.00
41250;BME280;26984;59.928;30.306;2022-09-28T08:41:16;100788.91;;;12.11;100.00
41250;BME280;26984;59.928;30.306;2022-09-28T08:44:10;100793.56;;;12.22;100.00
41250;BME280;26984;59.928;30.306;2022-09-28T08:46:58;100789.44;;;12.38;100.00
41250;BME280;26984;59.928;30.306;2022-09-28T08:49:40;100789.94;;;12.35;100.00
41250;BME280;26984;59.928;30.306;2022-09-28T08:52:29;100793.44;;;12.35;100.00
41250;BME280;26984;59.928;30.306;2022-09-28T08:55:25;100777.25;;;12.35;100.00
41250;BME280;26984;59.928;30.306;2022-09-28T08:57:54;100786.16;;;12.36;100.00
41250;BME280;26984;59.928;30.306;2022-09-28T09:00:29;100780.06;;;12.40;100.00
41250;BME280;26984;59.928;30.306;2022-09-28T09:02:58;100779.25;;;12.58;100.00
41250;BME280;26984;59.928;30.306;2022-09-28T09:05:33;100783.25;;;12.74;100.00
41250;BME280;26984;59.928;30.306;2022-09-28T09:08:13;100780.81;;;12.84;100.00
41250;BME280;26984;59.928;30.306;2022-09-28T09:10:49;100780.50;;;12.92;100.00
41250;BME280;26984;59.928;30.306;2022-09-28T09:16:06;100773.03;;;13.06;100.00
41250;BME280;26984;59.928;30.306;2022-09-28T09:18:54;100766.81;;;13.06;100.00
41250;BME280;26984;59.928;30.306;2022-09-28T09:21:40;100776.41;;;13.02;100.00
41250;BME280;26984;59.928;30.306;2022-09-28T09:24:22;100773.44;;;13.22;100.00
41250;BME280;26984;59.928;30.306;2022-09-28T09:27:00;100771.97;;;13.37;100.00
41250;BME280;26984;59.928;30.306;2022-09-28T09:29:34;100776.13;;;13.52;100.00
41250;BME280;26984;59.928;30.306;2022-09-28T09:32:11;100766.41;;;13.74;100.00
41250;BME280;26984;59.928;30.306;2022-09-28T09:34:45;100762.84;;;13.62;98.02
41250;BME280;26984;59.928;30.306;2022-09-28T09:37:44;100757.56;;;13.67;99.10
41250;BME280;26984;59.928;30.306;2022-09-28T09:40:48;100749.09;;;13.87;97.53
41250;BME280;26984;59.928;30.306;2022-09-28T09:43:49;100747.94;;;13.95;96.59
41250;BME280;26984;59.928;30.306;2022-09-28T09:46:48;100753.22;;;14.01;95.42
41250;BME280;26984;59.928;30.306;2022-09-28T09:49:22;100750.50;;;14.01;94.51
41250;BME280;26984;59.928;30.306;2022-09-28T09:51:52;100753.13;;;13.96;95.18
41250;BME280;26984;59.928;30.306;2022-09-28T09:54:25;100763.47;;;13.99;94.50
41250;BME280;26984;59.928;30.306;2022-09-28T09:56:55;100753.94;;;14.08;93.47
41250;BME280;26984;59.928;30.306;2022-09-28T09:59:51;100744.16;;;14.07;92.04
41250;BME280;26984;59.928;30.306;2022-09-28T10:02:25;100758.75;;;14.18;92.73
41250;BME280;26984;59.928;30.306;2022-09-28T10:05:29;100754.72;;;14.32;90.17
41250;BME280;26984;59.928;30.306;2022-09-28T10:07:59;100754.50;;;14.34;88.19
41250;BME280;26984;59.928;30.306;2022-09-28T10:10:34;100750.25;;;14.38;88.21
41250;BME280;26984;59.928;30.306;2022-09-28T10:13:10;100741.41;;;14.43;88.03
41250;BME280;26984;59.928;30.306;2022-09-28T10:15:40;100746.69;;;14.61;86.84
41250;BME280;26984;59.928;30.306;2022-09-28T10:18:18;100747.28;;;14.63;85.95
41250;BME280;26984;59.928;30.306;2022-09-28T10:20:51;100749.75;;;14.65;85.85
41250;BME280;26984;59.928;30.306;2022-09-28T10:23:37;100743.63;;;14.46;86.51
41250;BME280;26984;59.928;30.306;2022-09-28T10:26:06;100742.97;;;14.15;88.03
41250;BME280;26984;59.928;30.306;2022-09-28T10:28:39;100743.81;;;13.92;91.10
41250;BME280;26984;59.928;30.306;2022-09-28T10:33:54;100743.78;;;13.69;93.22
41250;BME280;26984;59.928;30.306;2022-09-28T10:36:24;100731.56;;;13.66;93.06
41250;BME280;26984;59.928;30.306;2022-09-28T10:38:51;100741.81;;;13.64;92.61
41250;BME280;26984;59.928;30.306;2022-09-28T10:41:30;100741.09;;;13.57;92.60
41250;BME280;26984;59.928;30.306;2022-09-28T10:44:02;100730.47;;;13.55;93.07
41250;BME280;26984;59.928;30.306;2022-09-28T10:46:43;100738.22;;;13.52;94.01
41250;BME280;26984;59.928;30.306;2022-09-28T10:49:16;100732.16;;;13.56;94.31
41250;BME280;26984;59.928;30.306;2022-09-28T10:51:52;100726.38;;;13.64;93.34
41250;BME280;26984;59.928;30.306;2022-09-28T10:54:32;100730.63;;;13.60;94.06
41250;BME280;26984;59.928;30.306;2022-09-28T10:57:00;100724.03;;;13.56;94.28
41250;BME280;26984;59.928;30.306;2022-09-28T10:59:45;100713.44;;;13.67;93.90
41250;BME280;26984;59.928;30.306;2022-09-28T11:02:25;100718.97;;;13.72;93.98
41250;BME280;26984;59.928;30.306;2022-09-28T11:05:00;100712.03;;;13.87;93.04
41250;BME280;26984;59.928;30.306;2022-09-28T11:07:42;100719.56;;;13.85;92.24
41250;BME280;26984;59.928;30.306;2022-09-28T11:10:17;100725.81;;;13.74;92.61
41250;BME280;26984;59.928;30.306;2022-09-28T11:12:46;100718.81;;;13.55;93.32
41250;BME280;26984;59.928;30.306;2022-09-28T11:15:15;100726.81;;;13.38;95.04
41250;BME280;26984;59.928;30.306;2022-09-28T11:17:46;100723.50;;;13.24;95.99
41250;BME280;26984;59.928;30.306;2022-09-28T11:20:32;100723.91;;;13.09;96.64
41250;BME280;26984;59.928;30.306;2022-09-28T11:23:15;100714.81;;;13.04;98.04
41250;BME280;26984;59.928;30.306;2022-09-28T11:25:44;100717.84;;;12.96;98.76
41250;BME280;26984;59.928;30.306;2022-09-28T11:28:22;100714.22;;;13.02;99.39
41250;BME280;26984;59.928;30.306;2022-09-28T11:30:52;100719.41;;;13.03;99.66
41250;BME280;26984;59.928;30.306;2022-09-28T11:33:31;100710.56;;;12.96;99.76
41250;BME280;26984;59.928;30.306;2022-09-28T11:36:24;100703.50;;;12.65;100.00
41250;BME280;26984;59.928;30.306;2022-09-28T11:38:58;100705.91;;;12.55;100.00
41250;BME280;26984;59.928;30.306;2022-09-28T11:42:03;100711.03;;;12.44;100.00
41250;BME280;26984;59.928;30.306;2022-09-28T11:44:40;100707.53;;;12.26;100.00
41250;BME280;26984;59.928;30.306;2022-09-28T11:47:34;100702.50;;;12.11;100.00
41250;BME280;26984;59.928;30.306;2022-09-28T11:50:05;100705.25;;;12.22;100.00
41250;BME280;26984;59.928;30.306;2022-09-28T11:52:42;100699.41;;;12.26;100.00
41250;BME280;26984;59.928;30.306;2022-09-28T11:55:16;100702.56;;;12.22;100.00
41250;BME280;26984;59.928;30.306;2022-09-28T11:57:45;100701.59;;;12.35;100.00
41250;BME280;26984;59.928;30.306;2022-09-28T12:00:26;100701.56;;;12.54;100.00
41250;BME280;26984;59.928;30.306;2022-09-28T12:03:00;100699.06;;;12.70;100.00
41250;BME280;26984;59.928;30.306;2022-09-28T12:05:32;100690.53;;;12.85;100.00
41250;BME280;26984;59.928;30.306;2022-09-28T12:08:03;100692.22;;;12.98;100.00
41250;BME280;26984;59.928;30.306;2022-09-28T12:11:01;100690.59;;;13.09;100.00
41250;BME280;26984;59.928;30.306;2022-09-28T12:13:53;100684.97;;;13.10;100.00
41250;BME280;26984;59.928;30.306;2022-09-28T12:16:25;100682.34;;;12.92;100.00
41250;BME280;26984;59.928;30.306;2022-09-28T12:18:56;100670.88;;;12.78;100.00
41250;BME280;26984;59.928;30.306;2022-09-28T12:21:27;100674.69;;;12.59;100.00
41250;BME280;26984;59.928;30.306;2022-09-28T12:24:01;100667.34;;;12.48;100.00
41250;BME280;26984;59.928;30.306;2022-09-28T12:26:31;100667.75;;;12.33;100.00
41250;BME280;26984;59.928;30.306;2022-09-28T12:29:00;100675.56;;;12.22;100.00
41250;BME280;26984;59.928;30.306;2022-09-28T12:31:30;100667.84;;;12.08;100.00
41250;BME280;26984;59.928;30.306;2022-09-28T12:34:00;100664.53;;;12.06;100.00
41250;BME280;26984;59.928;30.306;2022-09-28T12:36:35;100667.59;;;12.09;100.00
41250;BME280;26984;59.928;30.306;2022-09-28T12:39:11;100662.69;;;12.06;100.00
41250;BME280;26984;59.928;30.306;2022-09-28T12:41:44;100663.31;;;12.20;100.00
41250;BME280;26984;59.928;30.306;2022-09-28T12:44:20;100663.03;;;12.28;100.00
41250;BME280;26984;59.928;30.306;2022-09-28T12:46:59;100655.06;;;12.33;100.00
41250;BME280;26984;59.928;30.306;2022-09-28T12:49:43;100655.59;;;12.42;100.00
41250;BME280;26984;59.928;30.306;2022-09-28T12:52:19;100642.13;;;12.54;100.00
41250;BME280;26984;59.928;30.306;2022-09-28T12:54:58;100641.84;;;12.74;100.00
41250;BME280;26984;59.928;30.306;2022-09-28T12:57:34;100642.22;;;12.77;100.00
41250;BME280;26984;59.928;30.306;2022-09-28T13:00:05;100642.25;;;12.89;100.00
41250;BME280;26984;59.928;30.306;2022-09-28T13:02:45;100637.09;;;12.99;100.00
41250;BME280;26984;59.928;30.306;2022-09-28T13:05:17;100636.38;;;12.92;100.00
41250;BME280;26984;59.928;30.306;2022-09-28T13:07:52;100635.31;;;12.93;100.00
41250;BME280;26984;59.928;30.306;2022-09-28T13:10:27;100630.72;;;12.93;100.00
41250;BME280;26984;59.928;30.306;2022-09-28T13:13:04;100635.28;;;12.81;100.00
41250;BME280;26984;59.928;30.306;2022-09-28T13:15:39;100635.03;;;12.71;100.00
41250;BME280;26984;59.928;30.306;2022-09-28T13:18:14;100632.31;;;12.71;100.00
41250;BME280;26984;59.928;30.306;2022-09-28T13:20:49;100634.66;;;12.67;100.00
41250;BME280;26984;59.928;30.306;2022-09-28T13:23:20;100639.53;;;12.59;100.00